Time;durP1;ratioP1;P1;durP2;ratioP2;P2;SDS_P1;SDS_P2;PMS_P1;PMS_P2;Temp;Humidity;BMP_temperature;BMP_pressure;BME280_temperature;BME280_humidity;BME280_pressure;Samples;Min_cycle;Max_cycle;Signal;HPM_P1;HPM_P2
2022/05/04 00:02:28;;;;;;;;;;;17.40;76.80;;;;;;4958917;28;95045;-64
2022/05/04 00:05:00;;;;;;;;;;;17.40;76.80;;;;;;4943346;28;95006;-65
2022/05/04 00:07:33;;;;;;;;;;;17.40;76.80;;;;;;4943736;28;95096;-61
2022/05/04 00:10:03;;;;;;;;;;;17.40;76.90;;;;;;4960081;28;95333;-63
2022/05/04 00:12:34;;;;;;;;;;;17.50;77.00;;;;;;4959707;28;94947;-63
2022/05/04 00:15:06;;;;;;;;;;;17.50;76.90;;;;;;4959817;28;95141;-59
2022/05/04 00:17:38;;;;;;;;;;;17.60;76.90;;;;;;4958412;28;95885;-65
2022/05/04 00:20:09;;;;;;;;;;;17.60;76.80;;;;;;4959384;28;95281;-62
2022/05/04 00:22:40;;;;;;;;;;;17.60;76.70;;;;;;4959365;28;94908;-65
2022/05/04 00:25:12;;;;;;;;;;;17.70;76.70;;;;;;4960203;28;95271;-59
2022/05/04 00:27:43;;;;;;;;;;;17.70;76.50;;;;;;4959182;28;95793;-61
2022/05/04 00:30:16;;;;;;;;;;;17.70;76.40;;;;;;4958998;28;95333;-62
2022/05/04 00:32:47;;;;;;;;;;;17.80;76.40;;;;;;4957952;28;95339;-62
2022/05/04 00:35:19;;;;;;;;;;;17.80;76.20;;;;;;4959708;28;95218;-63
2022/05/04 00:37:51;;;;;;;;;;;17.90;76.00;;;;;;4958807;28;95860;-61
2022/05/04 00:40:23;;;;;;;;;;;17.90;75.90;;;;;;4959016;28;95284;-60
2022/05/04 00:42:54;;;;;;;;;;;17.90;75.70;;;;;;4962662;28;95068;-66
2022/05/04 00:45:27;;;;;;;;;;;18.00;75.70;;;;;;4963529;28;95137;-62
2022/05/04 00:47:58;;;;;;;;;;;18.00;75.60;;;;;;4962152;28;95835;-65
2022/05/04 00:50:30;;;;;;;;;;;18.00;75.50;;;;;;4946069;28;95396;-64
2022/05/04 00:53:02;;;;;;;;;;;18.00;75.50;;;;;;4963321;28;95017;-62
2022/05/04 00:55:34;;;;;;;;;;;18.00;75.40;;;;;;4963620;28;95547;-63
2022/05/04 01:00:56;;;;;;;;;;;18.00;75.40;;;;;;4962299;28;95305;-59
2022/05/04 01:03:28;;;;;;;;;;;18.00;75.40;;;;;;4962673;28;95014;-56
2022/05/04 01:06:00;;;;;;;;;;;18.00;75.30;;;;;;4962553;28;95172;-57
2022/05/04 01:08:31;;;;;;;;;;;18.10;75.30;;;;;;4962105;28;95792;-57
2022/05/04 01:11:03;;;;;;;;;;;18.10;75.30;;;;;;4944888;28;95284;-59
2022/05/04 01:13:33;;;;;;;;;;;18.10;75.30;;;;;;4962186;28;94761;-60
2022/05/04 01:16:04;;;;;;;;;;;18.10;75.40;;;;;;4962956;28;95157;-59
2022/05/04 01:18:36;;;;;;;;;;;18.10;75.00;;;;;;4961881;28;95820;-61
2022/05/04 01:21:07;;;;;;;;;;;18.10;75.00;;;;;;4961712;28;95288;-60
2022/05/04 01:23:40;;;;;;;;;;;18.10;75.00;;;;;;4962420;28;95119;-58
2022/05/04 01:26:11;;;;;;;;;;;18.10;75.10;;;;;;4962380;28;95012;-57
2022/05/04 01:28:43;;;;;;;;;;;18.10;75.10;;;;;;4961625;28;95912;-56
2022/05/04 01:31:16;;;;;;;;;;;18.10;74.90;;;;;;4960921;28;95241;-58
2022/05/04 01:33:48;;;;;;;;;;;18.20;75.00;;;;;;4962029;28;94981;-58
2022/05/04 01:36:20;;;;;;;;;;;18.20;74.90;;;;;;4962325;28;94983;-61
2022/05/04 01:38:52;;;;;;;;;;;18.10;74.90;;;;;;4944777;28;95960;-60
2022/05/04 01:44:13;;;;;;;;;;;18.10;74.90;;;;;;4962017;28;94940;-59
2022/05/04 01:46:46;;;;;;;;;;;18.10;75.00;;;;;;4945199;28;95368;-60
2022/05/04 01:49:27;;;;;;;;;;;18.20;75.00;;;;;;4962717;28;95872;-58
2022/05/04 01:52:03;;;;;;;;;;;18.10;74.90;;;;;;4961648;28;95169;-61
2022/05/04 01:54:34;;;;;;;;;;;18.20;74.90;;;;;;4945210;28;94920;-62
2022/05/04 01:57:06;;;;;;;;;;;18.20;74.70;;;;;;4944775;28;95619;-62
2022/05/04 01:59:38;;;;;;;;;;;18.20;74.70;;;;;;4961449;28;95376;-63
2022/05/04 02:02:11;;;;;;;;;;;18.20;74.70;;;;;;4959969;28;95715;-61
2022/05/04 02:04:43;;;;;;;;;;;18.10;74.80;;;;;;4960382;28;95037;-59
2022/05/04 02:07:14;;;;;;;;;;;18.20;74.90;;;;;;4961807;28;95245;-67
2022/05/04 02:09:46;;;;;;;;;;;18.20;74.80;;;;;;4944087;28;96046;-68
2022/05/04 02:12:17;;;;;;;;;;;18.20;74.90;;;;;;4961103;28;95237;-67
2022/05/04 02:14:49;;;;;;;;;;;18.20;74.80;;;;;;4943512;28;94975;-66
2022/05/04 02:17:21;;;;;;;;;;;18.20;74.00;;;;;;4959909;28;95153;-67
2022/05/04 02:19:53;;;;;;;;;;;18.20;74.90;;;;;;4960960;28;95759;-65
2022/05/04 02:22:24;;;;;;;;;;;18.20;74.70;;;;;;4960670;28;95231;-67
2022/05/04 02:24:57;;;;;;;;;;;18.20;74.70;;;;;;4961088;28;95066;-62
2022/05/04 02:27:28;;;;;;;;;;;18.20;74.80;;;;;;4928153;28;95283;-72
2022/05/04 02:30:00;;;;;;;;;;;18.30;74.80;;;;;;4959718;28;95862;-64
2022/05/04 02:32:30;;;;;;;;;;;18.30;74.60;;;;;;4958589;28;95249;-65
2022/05/04 02:37:55;;;;;;;;;;;18.20;74.70;;;;;;4961314;28;95239;-63
2022/05/04 02:40:29;;;;;;;;;;;18.20;74.10;;;;;;4961231;28;95843;-62
2022/05/04 02:43:01;;;;;;;;;;;18.30;74.90;;;;;;4960426;28;95253;-63
2022/05/04 02:45:33;;;;;;;;;;;18.30;74.80;;;;;;4944839;28;95060;-64
2022/05/04 02:48:03;;;;;;;;;;;18.30;74.80;;;;;;4962048;28;95199;-63
2022/05/04 02:50:34;;;;;;;;;;;18.30;74.60;;;;;;4961554;28;96575;-63
2022/05/04 02:53:05;;;;;;;;;;;18.40;74.70;;;;;;4962385;28;95198;-67
2022/05/04 02:55:39;;;;;;;;;;;18.30;74.60;;;;;;4961131;28;94997;-68
2022/05/04 02:58:13;;;;;;;;;;;18.30;74.80;;;;;;4961363;28;95352;-67
2022/05/04 03:00:45;;;;;;;;;;;18.30;74.60;;;;;;4960458;28;95892;-64
2022/05/04 03:03:16;;;;;;;;;;;18.30;74.70;;;;;;4960549;28;95408;-64
2022/05/04 03:05:48;;;;;;;;;;;18.30;74.90;;;;;;4959833;28;94914;-66
2022/05/04 03:08:19;;;;;;;;;;;18.30;74.90;;;;;;4960860;28;95131;-65
2022/05/04 03:13:42;;;;;;;;;;;18.30;74.90;;;;;;4959810;28;95214;-64
2022/05/04 03:16:13;;;;;;;;;;;18.30;75.00;;;;;;4959551;28;95017;-63
2022/05/04 03:18:46;;;;;;;;;;;18.30;74.90;;;;;;4961809;28;95378;-65
2022/05/04 03:21:18;;;;;;;;;;;18.30;75.00;;;;;;4943757;28;96381;-65
2022/05/04 03:23:50;;;;;;;;;;;18.30;74.80;;;;;;4960818;28;95225;-64
2022/05/04 03:26:24;;;;;;;;;;;18.30;74.90;;;;;;4943808;28;94998;-64
2022/05/04 03:28:56;;;;;;;;;;;18.40;74.80;;;;;;4960566;28;95211;-64
2022/05/04 03:31:27;;;;;;;;;;;18.40;70.30;;;;;;4958693;28;95803;-64
2022/05/04 03:33:59;;;;;;;;;;;18.40;74.70;;;;;;4941602;28;97482;-65
2022/05/04 03:36:30;;;;;;;;;;;18.40;74.60;;;;;;4941669;28;95113;-64
2022/05/04 03:39:02;;;;;;;;;;;18.40;74.70;;;;;;4960252;28;95343;-64
2022/05/04 03:41:33;;;;;;;;;;;18.30;74.70;;;;;;4959851;28;95809;-63
2022/05/04 03:44:04;;;;;;;;;;;18.30;74.70;;;;;;4960046;28;95420;-71
2022/05/04 03:46:49;;;;;;;;;;;18.40;75.00;;;;;;4961813;28;94959;-67
2022/05/04 03:49:21;;;;;;;;;;;18.40;75.00;;;;;;4963450;28;95576;-68
2022/05/04 03:51:53;;;;;;;;;;;18.40;75.00;;;;;;4961974;28;97160;-66
2022/05/04 03:54:25;;;;;;;;;;;18.50;75.00;;;;;;4945976;28;95262;-70
2022/05/04 03:57:02;;;;;;;;;;;18.50;74.80;;;;;;4962584;28;95122;-64
2022/05/04 03:59:33;;;;;;;;;;;18.50;74.80;;;;;;4955932;28;95485;-62
2022/05/04 04:02:04;;;;;;;;;;;18.50;74.80;;;;;;4958845;28;96406;-62
2022/05/04 04:04:36;;;;;;;;;;;18.60;74.80;;;;;;4961068;28;95790;-67
2022/05/04 04:07:08;;;;;;;;;;;18.60;74.70;;;;;;4962588;28;94965;-67
2022/05/04 04:09:38;;;;;;;;;;;18.60;74.70;;;;;;4963198;28;95285;-67
2022/05/04 04:12:09;;;;;;;;;;;18.60;74.80;;;;;;4945029;28;95045;-66
2022/05/04 04:14:42;;;;;;;;;;;18.60;74.90;;;;;;4961559;28;95493;-66
2022/05/04 04:17:14;;;;;;;;;;;18.60;71.70;;;;;;4963991;28;94966;-66
2022/05/04 04:21:50;;;;;;;;;;;18.60;74.80;;;;;;4966868;28;95000;-65
2022/05/04 04:22:37;;;;;;;;;;;18.60;74.70;;;;;;4965542;28;96506;-66
2022/05/04 04:25:10;;;;;;;;;;;18.60;71.50;;;;;;4965730;28;95198;-66
2022/05/04 04:27:41;;;;;;;;;;;18.60;74.70;;;;;;4966551;28;94910;-66
2022/05/04 04:30:14;;;;;;;;;;;18.60;74.60;;;;;;4965859;28;95025;-62
2022/05/04 04:32:45;;;;;;;;;;;18.50;74.90;;;;;;4947093;28;96226;-63
2022/05/04 04:35:16;;;;;;;;;;;18.60;75.30;;;;;;4963758;28;95402;-64
2022/05/04 04:37:48;;;;;;;;;;;18.60;75.40;;;;;;4947990;28;95067;-66
2022/05/04 04:40:19;;;;;;;;;;;18.60;75.30;;;;;;4966141;28;94703;-64
2022/05/04 04:42:51;;;;;;;;;;;18.60;75.30;;;;;;4965598;28;96594;-67
2022/05/04 04:45:23;;;;;;;;;;;18.60;75.30;;;;;;4965174;28;95228;-66
2022/05/04 04:47:56;;;;;;;;;;;18.60;75.40;;;;;;4966336;28;95016;-68
2022/05/04 04:50:26;;;;;;;;;;;18.60;75.30;;;;;;4967215;28;95066;-66
2022/05/04 04:52:57;;;;;;;;;;;18.60;75.30;;;;;;4965977;28;96378;-68
2022/05/04 04:55:27;;;;;;;;;;;18.60;75.30;;;;;;4965269;28;95814;-65
2022/05/04 04:57:58;;;;;;;;;;;18.60;75.20;;;;;;4966118;28;94950;-67
2022/05/04 05:00:32;;;;;;;;;;;18.70;75.10;;;;;;4932403;28;95446;-67
2022/05/04 05:03:07;;;;;;;;;;;18.60;75.10;;;;;;4966219;28;96400;-70
2022/05/04 05:05:48;;;;;;;;;;;18.70;75.20;;;;;;4965511;28;94889;-67
2022/05/04 05:08:26;;;;;;;;;;;18.60;75.20;;;;;;4965237;28;94927;-68
2022/05/04 05:10:57;;;;;;;;;;;18.70;75.20;;;;;;4932378;28;94836;-58
2022/05/04 05:13:29;;;;;;;;;;;18.70;75.20;;;;;;4964635;28;95994;-63
2022/05/04 05:16:07;;;;;;;;;;;18.70;75.00;;;;;;4964299;28;94951;-66
2022/05/04 05:18:39;;;;;;;;;;;18.70;74.90;;;;;;4964298;28;94860;-61
2022/05/04 05:21:10;;;;;;;;;;;18.70;74.90;;;;;;4963220;28;95251;-62
2022/05/04 05:23:43;;;;;;;;;;;18.70;74.80;;;;;;4964241;28;95808;-62
2022/05/04 05:26:16;;;;;;;;;;;18.60;74.80;;;;;;4963797;28;95732;-64
2022/05/04 05:28:49;;;;;;;;;;;18.70;74.90;;;;;;4962868;28;94975;-62
2022/05/04 05:31:23;;;;;;;;;;;18.70;74.80;;;;;;4963717;28;95058;-62
2022/05/04 05:33:56;;;;;;;;;;;18.80;74.80;;;;;;4962417;28;96426;-62
2022/05/04 05:36:28;;;;;;;;;;;18.80;74.80;;;;;;4963206;28;95235;-63
2022/05/04 05:38:59;;;;;;;;;;;18.80;74.70;;;;;;4964283;28;94948;-61
2022/05/04 05:41:29;;;;;;;;;;;18.80;74.70;;;;;;4963989;28;95104;-63
2022/05/04 05:44:01;;;;;;;;;;;18.80;74.80;;;;;;4963227;28;95820;-63
2022/05/04 05:46:32;;;;;;;;;;;18.80;74.80;;;;;;4963901;28;95831;-64
2022/05/04 05:49:03;;;;;;;;;;;18.80;74.80;;;;;;4964482;28;94904;-70
2022/05/04 05:51:35;;;;;;;;;;;18.80;74.80;;;;;;4965015;28;95243;-61
2022/05/04 05:54:05;;;;;;;;;;;18.80;74.80;;;;;;4964376;28;95845;-62
2022/05/04 05:56:36;;;;;;;;;;;18.90;74.80;;;;;;4963627;28;95897;-62
2022/05/04 05:59:09;;;;;;;;;;;18.80;74.80;;;;;;4962895;28;95019;-62
2022/05/04 06:01:41;;;;;;;;;;;18.90;74.90;;;;;;4961908;28;95308;-61
2022/05/04 06:04:13;;;;;;;;;;;18.90;74.70;;;;;;4964155;28;96003;-62
2022/05/04 06:06:46;;;;;;;;;;;18.90;74.60;;;;;;4963750;28;95264;-63
2022/05/04 06:09:16;;;;;;;;;;;18.90;74.70;;;;;;4963684;28;95072;-61
2022/05/04 06:11:47;;;;;;;;;;;18.90;74.60;;;;;;4963465;28;95092;-64
2022/05/04 06:14:20;;;;;;;;;;;18.90;73.30;;;;;;4962843;28;95787;-60
2022/05/04 06:16:53;;;;;;;;;;;18.90;74.60;;;;;;4961766;28;95299;-60
2022/05/04 06:19:24;;;;;;;;;;;18.90;74.50;;;;;;4962810;28;94915;-60
2022/05/04 06:21:55;;;;;;;;;;;18.80;74.50;;;;;;4963057;28;95314;-60
2022/05/04 06:24:27;;;;;;;;;;;18.80;74.60;;;;;;4945210;28;96439;-60
2022/05/04 06:26:59;;;;;;;;;;;18.80;74.70;;;;;;4962306;28;95712;-59
2022/05/04 06:35:11;;;;;;;;;;;19.10;74.00;;;;;;4961681;28;95978;-61
2022/05/04 06:37:42;;;;;;;;;;;19.20;73.80;;;;;;4960778;28;95089;-59
2022/05/04 06:40:13;;;;;;;;;;;19.30;73.50;;;;;;4960820;28;94977;-55
2022/05/04 06:42:45;;;;;;;;;;;19.40;73.10;;;;;;4961172;28;95247;-58
2022/05/04 06:45:17;;;;;;;;;;;19.50;72.90;;;;;;4961075;28;95815;-56
2022/05/04 06:47:48;;;;;;;;;;;19.60;72.70;;;;;;4961578;28;94897;-55
2022/05/04 06:50:19;;;;;;;;;;;19.60;72.60;;;;;;4961980;28;94911;-58
2022/05/04 06:52:49;;;;;;;;;;;19.70;72.70;;;;;;4962470;28;95183;-59
2022/05/04 06:55:23;;;;;;;;;;;19.70;72.80;;;;;;4961926;28;96015;-58
2022/05/04 06:57:54;;;;;;;;;;;19.70;72.80;;;;;;4961196;28;95433;-56
2022/05/04 07:00:27;;;;;;;;;;;19.70;73.00;;;;;;4960956;28;94936;-55
2022/05/04 07:03:00;;;;;;;;;;;19.70;73.10;;;;;;4961642;28;94983;-58
2022/05/04 07:05:31;;;;;;;;;;;19.60;73.10;;;;;;4960363;28;96034;-58
2022/05/04 07:08:03;;;;;;;;;;;19.60;73.20;;;;;;4944069;28;95421;-58
2022/05/04 07:10:34;;;;;;;;;;;19.60;73.20;;;;;;4960888;28;94953;-57
2022/05/04 07:13:06;;;;;;;;;;;19.60;73.40;;;;;;4961223;28;95238;-59
2022/05/04 07:15:38;;;;;;;;;;;19.60;73.40;;;;;;4960833;28;96641;-60
2022/05/04 07:18:10;;;;;;;;;;;19.60;73.40;;;;;;4943363;28;95221;-55
2022/05/04 07:20:42;;;;;;;;;;;19.60;73.40;;;;;;4960540;28;94932;-58
2022/05/04 07:23:13;;;;;;;;;;;19.50;73.40;;;;;;4960860;28;95118;-57
2022/05/04 07:25:45;;;;;;;;;;;19.50;73.30;;;;;;4960097;28;94918;-56
2022/05/04 07:28:17;;;;;;;;;;;19.50;73.50;;;;;;4960117;28;95262;-58
2022/05/04 07:30:49;;;;;;;;;;;19.60;73.40;;;;;;4958113;28;95368;-56
2022/05/04 07:33:21;;;;;;;;;;;19.80;72.90;;;;;;4960209;28;95097;-57
2022/05/04 07:35:53;;;;;;;;;;;19.90;72.70;;;;;;4941976;28;94904;-59
2022/05/04 07:38:24;;;;;;;;;;;20.00;72.30;;;;;;4942759;28;95989;-59
2022/05/04 07:43:43;;;;;;;;;;;20.10;71.70;;;;;;4963066;28;95126;-58
2022/05/04 07:46:15;;;;;;;;;;;20.10;71.60;;;;;;4960913;28;95764;-58
2022/05/04 07:48:46;;;;;;;;;;;20.10;71.80;;;;;;4960793;28;95788;-58
2022/05/04 07:51:18;;;;;;;;;;;20.10;71.90;;;;;;4960649;28;94920;-58
2022/05/04 07:53:49;;;;;;;;;;;20.10;71.90;;;;;;4961155;28;95165;-59
2022/05/04 07:56:21;;;;;;;;;;;20.10;71.90;;;;;;4960517;28;95962;-56
2022/05/04 07:59:00;;;;;;;;;;;20.00;71.80;;;;;;4960192;28;95282;-58
2022/05/04 08:04:21;;;;;;;;;;;20.00;71.70;;;;;;4960315;28;95292;-57
2022/05/04 08:06:52;;;;;;;;;;;19.90;71.60;;;;;;4959309;28;95973;-54
2022/05/04 08:09:24;;;;;;;;;;;19.90;71.70;;;;;;4959787;28;95185;-58
2022/05/04 08:11:55;;;;;;;;;;;19.90;71.70;;;;;;4960258;28;94998;-58
2022/05/04 08:14:27;;;;;;;;;;;19.90;71.80;;;;;;4960822;28;95178;-58
2022/05/04 08:16:58;;;;;;;;;;;19.80;71.80;;;;;;4958182;28;96370;-56
2022/05/04 08:19:29;;;;;;;;;;;19.80;71.90;;;;;;4959781;28;96412;-57
2022/05/04 08:22:04;;;;;;;;;;;19.80;71.80;;;;;;4959804;28;94983;-57
2022/05/04 08:24:49;;;;;;;;;;;19.70;71.80;;;;;;4960284;28;95124;-56
2022/05/04 08:27:31;;;;;;;;;;;19.70;71.90;;;;;;4959688;28;95868;-58
2022/05/04 08:30:04;;;;;;;;;;;19.70;72.00;;;;;;4959698;28;95280;-58
2022/05/04 08:32:37;;;;;;;;;;;19.60;72.00;;;;;;4956615;28;96052;-57
2022/05/04 08:35:09;;;;;;;;;;;19.50;72.30;;;;;;4959798;28;95180;-57
2022/05/04 08:37:41;;;;;;;;;;;19.50;72.40;;;;;;4959787;28;95994;-56
2022/05/04 08:40:12;;;;;;;;;;;19.40;72.70;;;;;;4959042;28;95402;-58
2022/05/04 08:42:46;;;;;;;;;;;19.40;72.80;;;;;;4959832;28;94987;-58
2022/05/04 08:45:18;;;;;;;;;;;19.40;73.10;;;;;;4960022;28;95244;-56
2022/05/04 08:47:50;;;;;;;;;;;19.40;73.30;;;;;;4960390;28;95843;-58
2022/05/04 08:50:24;;;;;;;;;;;19.30;73.40;;;;;;4960566;28;95426;-58
2022/05/04 08:52:55;;;;;;;;;;;19.30;73.40;;;;;;4960563;28;94910;-58
2022/05/04 08:55:25;;;;;;;;;;;19.30;72.30;;;;;;4960985;28;95035;-57
2022/05/04 08:57:56;;;;;;;;;;;19.20;73.70;;;;;;4959950;28;95772;-58
2022/05/04 09:00:29;;;;;;;;;;;19.20;73.70;;;;;;4959696;28;95197;-56
2022/05/04 09:03:02;;;;;;;;;;;19.20;73.70;;;;;;4961418;28;94946;-57
2022/05/04 09:05:40;;;;;;;;;;;19.20;73.80;;;;;;4945571;28;95353;-57
2022/05/04 09:08:31;;;;;;;;;;;19.20;73.90;;;;;;4961009;28;96397;-57
2022/05/04 09:11:04;;;;;;;;;;;19.20;71.10;;;;;;4962422;28;95364;-58
2022/05/04 09:13:46;;;;;;;;;;;19.10;73.80;;;;;;4961634;28;94978;-55
2022/05/04 09:16:29;;;;;;;;;;;19.10;73.80;;;;;;4963029;28;95122;-55
2022/05/04 09:19:11;;;;;;;;;;;19.10;73.90;;;;;;4945722;28;95040;-58
2022/05/04 09:21:42;;;;;;;;;;;19.00;74.00;;;;;;4962714;28;95257;-58
2022/05/04 09:24:26;;;;;;;;;;;19.00;74.00;;;;;;4962556;28;94968;-57
2022/05/04 09:26:59;;;;;;;;;;;19.00;74.10;;;;;;4962909;28;95094;-57
2022/05/04 09:29:35;;;;;;;;;;;19.00;74.10;;;;;;4951120;28;96349;-58
2022/05/04 09:32:15;;;;;;;;;;;18.90;74.20;;;;;;4957359;28;95541;-58
2022/05/04 09:34:56;;;;;;;;;;;19.00;74.20;;;;;;4941851;28;95273;-60
2022/05/04 09:46:39;;;;;;;;;;;18.90;74.50;;;;;;4962741;28;95046;-57
2022/05/04 09:49:17;;;;;;;;;;;18.80;74.40;;;;;;4963410;28;95159;-58
2022/05/04 09:51:54;;;;;;;;;;;18.80;74.40;;;;;;4962698;28;95841;-56
2022/05/04 09:54:28;;;;;;;;;;;18.80;74.30;;;;;;4945474;28;95245;-56
2022/05/04 09:57:17;;;;;;;;;;;18.70;74.40;;;;;;4961114;28;94936;-56
2022/05/04 09:59:50;;;;;;;;;;;18.70;74.60;;;;;;4962868;28;95133;-57
2022/05/04 10:02:22;;;;;;;;;;;18.60;73.20;;;;;;4960971;28;96130;-57
2022/05/04 10:04:54;;;;;;;;;;;18.60;74.60;;;;;;4961770;28;95266;-57
2022/05/04 10:07:26;;;;;;;;;;;18.60;74.60;;;;;;4962257;28;94931;-57
2022/05/04 10:09:56;;;;;;;;;;;18.60;74.50;;;;;;4962249;28;95003;-57
2022/05/04 10:12:28;;;;;;;;;;;18.60;74.50;;;;;;4961720;28;95995;-56
2022/05/04 10:14:59;;;;;;;;;;;18.50;74.50;;;;;;4961426;28;95215;-56
2022/05/04 10:17:33;;;;;;;;;;;18.50;74.60;;;;;;4961682;28;94974;-56
2022/05/04 10:20:16;;;;;;;;;;;18.50;74.70;;;;;;4945068;28;95341;-56
2022/05/04 10:23:13;;;;;;;;;;;18.50;74.90;;;;;;4962133;28;95862;-57
2022/05/04 10:25:45;;;;;;;;;;;18.50;74.90;;;;;;4960701;28;95332;-57
2022/05/04 10:28:17;;;;;;;;;;;18.40;74.90;;;;;;4961870;28;94940;-58
2022/05/04 10:30:54;;;;;;;;;;;18.30;75.00;;;;;;4961034;28;96626;-57
2022/05/04 10:33:34;;;;;;;;;;;18.30;75.10;;;;;;4960838;28;96059;-58
2022/05/04 10:36:31;;;;;;;;;;;18.40;75.10;;;;;;4959923;28;95892;-58
2022/05/04 10:39:06;;;;;;;;;;;18.30;75.10;;;;;;4960890;28;94919;-56
2022/05/04 10:41:37;;;;;;;;;;;18.30;75.20;;;;;;4961358;28;95030;-56
2022/05/04 10:44:12;;;;;;;;;;;18.30;75.30;;;;;;4960946;28;96073;-58
2022/05/04 10:46:45;;;;;;;;;;;18.20;75.30;;;;;;4960045;28;95211;-56
2022/05/04 10:49:32;;;;;;;;;;;18.20;75.40;;;;;;4944990;28;95237;-58
2022/05/04 10:52:05;;;;;;;;;;;18.20;75.50;;;;;;4962335;28;95154;-58
2022/05/04 10:54:46;;;;;;;;;;;18.10;75.40;;;;;;4961497;28;95860;-56
2022/05/04 10:57:18;;;;;;;;;;;18.10;75.50;;;;;;4961118;28;95272;-56
2022/05/04 11:00:02;;;;;;;;;;;18.00;75.50;;;;;;4960986;28;94971;-57
2022/05/04 11:02:34;;;;;;;;;;;18.10;74.20;;;;;;4960440;28;95149;-55
2022/05/04 11:05:13;;;;;;;;;;;18.00;75.70;;;;;;4960575;28;95980;-57
2022/05/04 11:07:46;;;;;;;;;;;18.00;75.70;;;;;;4960813;28;95695;-58
2022/05/04 11:10:18;;;;;;;;;;;18.00;75.70;;;;;;4960578;28;94877;-57
2022/05/04 11:12:50;;;;;;;;;;;18.00;75.70;;;;;;4960958;28;95011;-58
2022/05/04 11:15:21;;;;;;;;;;;18.00;75.80;;;;;;4960331;28;95799;-56
2022/05/04 11:17:53;;;;;;;;;;;17.90;75.70;;;;;;4960354;28;95204;-57
2022/05/04 11:20:25;;;;;;;;;;;17.90;75.80;;;;;;4960406;28;94953;-58
2022/05/04 11:22:56;;;;;;;;;;;17.90;75.70;;;;;;4960826;28;95122;-57
2022/05/04 11:25:28;;;;;;;;;;;17.90;75.70;;;;;;4959335;28;95952;-57
2022/05/04 11:28:03;;;;;;;;;;;17.90;75.80;;;;;;4960072;28;95738;-58
2022/05/04 11:30:35;;;;;;;;;;;17.90;75.90;;;;;;4958820;28;95036;-57
2022/05/04 11:33:14;;;;;;;;;;;17.80;75.80;;;;;;4959500;28;95273;-58
2022/05/04 11:35:57;;;;;;;;;;;17.80;75.90;;;;;;4959482;28;96427;-58
2022/05/04 11:38:31;;;;;;;;;;;17.80;75.90;;;;;;4958940;28;95799;-57
2022/05/04 11:41:09;;;;;;;;;;;17.80;75.90;;;;;;4960326;28;94980;-57
2022/05/04 11:43:44;;;;;;;;;;;17.80;75.90;;;;;;4960302;28;95415;-55
2022/05/04 11:46:19;;;;;;;;;;;17.80;75.80;;;;;;4960517;28;96015;-57
2022/05/04 11:48:57;;;;;;;;;;;17.70;75.70;;;;;;4942849;28;95105;-58
2022/05/04 11:51:30;;;;;;;;;;;17.70;75.90;;;;;;4943299;28;95144;-55
2022/05/04 11:54:04;;;;;;;;;;;17.70;76.00;;;;;;4961588;28;95134;-57
2022/05/04 11:56:36;;;;;;;;;;;17.70;75.90;;;;;;4960824;28;96059;-57
2022/05/04 11:59:09;;;;;;;;;;;17.70;76.50;;;;;;4959840;28;95348;-55
2022/05/04 12:01:40;;;;;;;;;;;17.60;75.80;;;;;;4958333;28;94933;-57
2022/05/04 12:04:13;;;;;;;;;;;17.60;75.90;;;;;;4960928;28;95150;-52
2022/05/04 12:06:46;;;;;;;;;;;17.60;75.90;;;;;;4960050;28;95994;-58
2022/05/04 12:09:18;;;;;;;;;;;17.60;75.90;;;;;;4959755;28;95728;-56
2022/05/04 12:11:50;;;;;;;;;;;17.70;75.90;;;;;;4959400;28;94956;-57
2022/05/04 12:14:22;;;;;;;;;;;17.60;75.90;;;;;;4959830;28;95244;-57
2022/05/04 12:16:54;;;;;;;;;;;17.60;75.80;;;;;;4957464;28;95827;-57
2022/05/04 12:19:29;;;;;;;;;;;17.60;75.90;;;;;;4959536;28;95302;-57
2022/05/04 12:22:04;;;;;;;;;;;17.60;75.80;;;;;;4959627;28;94948;-57
2022/05/04 12:24:37;;;;;;;;;;;17.50;75.90;;;;;;4943575;28;95225;-56
2022/05/04 12:27:08;;;;;;;;;;;17.50;75.80;;;;;;4959176;28;96017;-57
2022/05/04 12:35:22;;;;;;;;;;;17.50;75.80;;;;;;4959534;28;95148;-56
2022/05/04 12:37:52;;;;;;;;;;;17.50;75.80;;;;;;4961546;28;95798;-60
2022/05/04 12:40:23;;;;;;;;;;;17.50;75.80;;;;;;4962022;28;95437;-57
2022/05/04 12:42:56;;;;;;;;;;;17.40;75.80;;;;;;4962750;28;94944;-57
2022/05/04 12:45:29;;;;;;;;;;;17.40;75.80;;;;;;4963229;28;95369;-57
2022/05/04 12:48:00;;;;;;;;;;;17.40;75.80;;;;;;4963306;28;96341;-58
2022/05/04 12:50:35;;;;;;;;;;;17.40;75.70;;;;;;4963272;28;95182;-57
2022/05/04 12:53:08;;;;;;;;;;;17.40;75.70;;;;;;4963682;28;95577;-58
2022/05/04 12:58:29;;;;;;;;;;;17.30;75.60;;;;;;4962743;28;96018;-59
2022/05/04 13:01:02;;;;;;;;;;;17.30;75.60;;;;;;4962025;28;95619;-57
2022/05/04 13:03:35;;;;;;;;;;;17.30;75.70;;;;;;4962055;28;95131;-56
2022/05/04 13:06:08;;;;;;;;;;;17.30;75.80;;;;;;4963137;28;95087;-57
2022/05/04 13:08:38;;;;;;;;;;;17.30;75.80;;;;;;4962480;28;95841;-55
2022/05/04 13:11:10;;;;;;;;;;;17.30;75.80;;;;;;4962047;28;95111;-58
2022/05/04 13:13:43;;;;;;;;;;;17.20;75.80;;;;;;4962420;28;95024;-55
2022/05/04 13:16:17;;;;;;;;;;;17.20;75.70;;;;;;4962581;28;95220;-54
2022/05/04 13:18:48;;;;;;;;;;;17.20;75.70;;;;;;4962294;28;94965;-56
2022/05/04 13:21:21;;;;;;;;;;;17.20;75.70;;;;;;4961965;28;95416;-56
2022/05/04 13:23:52;;;;;;;;;;;17.10;75.70;;;;;;4962377;28;94945;-57
2022/05/04 13:26:24;;;;;;;;;;;17.20;72.60;;;;;;4962122;28;95482;-56
2022/05/04 13:29:00;;;;;;;;;;;17.10;75.60;;;;;;4961848;28;96287;-58
2022/05/04 13:31:31;;;;;;;;;;;17.20;71.00;;;;;;4957748;28;95988;-58
2022/05/04 13:34:03;;;;;;;;;;;17.10;75.50;;;;;;4942611;28;95194;-56
2022/05/04 13:36:35;;;;;;;;;;;17.10;75.60;;;;;;4962395;28;95196;-58
2022/05/04 13:39:08;;;;;;;;;;;17.00;75.50;;;;;;4961652;28;95816;-55
2022/05/04 13:41:39;;;;;;;;;;;17.00;75.50;;;;;;4961766;28;95270;-55
2022/05/04 13:44:12;;;;;;;;;;;17.00;75.50;;;;;;4961664;28;94971;-53
2022/05/04 13:46:44;;;;;;;;;;;17.00;75.50;;;;;;4944332;28;95326;-54
2022/05/04 13:49:17;;;;;;;;;;;17.00;75.50;;;;;;4962111;28;96778;-56
2022/05/04 13:54:41;;;;;;;;;;;17.00;75.50;;;;;;4962846;28;95092;-55
2022/05/04 13:57:12;;;;;;;;;;;17.00;75.50;;;;;;4962793;28;95133;-58
2022/05/04 13:59:43;;;;;;;;;;;16.90;75.50;;;;;;4961576;28;96808;-57
2022/05/04 14:02:16;;;;;;;;;;;17.00;72.50;;;;;;4960666;28;95386;-57
2022/05/04 14:04:50;;;;;;;;;;;16.90;75.70;;;;;;4962184;28;95015;-55
2022/05/04 14:07:22;;;;;;;;;;;16.90;75.70;;;;;;4962528;28;95171;-57
2022/05/04 14:09:53;;;;;;;;;;;16.90;75.70;;;;;;4961205;28;95882;-57
2022/05/04 14:12:24;;;;;;;;;;;16.90;75.70;;;;;;4961267;28;95305;-55
2022/05/04 14:15:01;;;;;;;;;;;16.90;75.70;;;;;;4961615;28;94967;-57
2022/05/04 14:17:33;;;;;;;;;;;16.80;75.70;;;;;;4944091;28;95139;-55
2022/05/04 14:20:06;;;;;;;;;;;16.80;75.70;;;;;;4960837;28;96422;-57
2022/05/04 14:22:36;;;;;;;;;;;16.80;75.80;;;;;;4960937;28;95306;-56
2022/05/04 14:25:09;;;;;;;;;;;16.80;75.90;;;;;;4961272;28;94960;-56
2022/05/04 14:27:40;;;;;;;;;;;16.70;75.80;;;;;;4953581;28;95202;-56
2022/05/04 14:30:12;;;;;;;;;;;16.80;75.90;;;;;;4943955;28;95846;-56
2022/05/04 14:32:44;;;;;;;;;;;16.70;75.80;;;;;;4960769;28;95254;-58
2022/05/04 14:35:15;;;;;;;;;;;16.70;75.90;;;;;;4960312;28;95139;-60
2022/05/04 14:37:48;;;;;;;;;;;16.70;76.10;;;;;;4961473;28;95209;-58
2022/05/04 14:40:20;;;;;;;;;;;16.80;76.40;;;;;;4960845;28;95849;-53
2022/05/04 14:42:54;;;;;;;;;;;16.80;76.40;;;;;;4960687;28;95310;-55
2022/05/04 14:45:27;;;;;;;;;;;16.80;76.40;;;;;;4961184;28;94990;-55
2022/05/04 14:48:01;;;;;;;;;;;16.80;76.40;;;;;;4961825;28;95308;-53
2022/05/04 14:50:34;;;;;;;;;;;16.90;76.50;;;;;;4961146;28;96210;-54
2022/05/04 14:53:05;;;;;;;;;;;16.90;76.60;;;;;;4961566;28;95265;-57
2022/05/04 14:55:37;;;;;;;;;;;16.90;76.50;;;;;;4945492;28;94960;-57
2022/05/04 14:58:09;;;;;;;;;;;16.90;76.50;;;;;;4962050;28;95194;-60
2022/05/04 15:00:41;;;;;;;;;;;16.90;76.40;;;;;;4960870;28;95837;-58
2022/05/04 15:06:19;;;;;;;;;;;16.90;76.30;;;;;;4960569;28;94911;-56
2022/05/04 15:08:58;;;;;;;;;;;16.90;76.30;;;;;;4960960;28;94952;-56
2022/05/04 15:11:29;;;;;;;;;;;16.90;74.90;;;;;;4960280;28;95808;-58
2022/05/04 15:14:02;;;;;;;;;;;16.90;76.40;;;;;;4942587;28;95034;-60
2022/05/04 15:16:33;;;;;;;;;;;16.90;76.30;;;;;;4924133;28;95397;-59
2022/05/04 15:19:05;;;;;;;;;;;16.90;76.40;;;;;;4961195;28;95115;-54
2022/05/04 15:21:37;;;;;;;;;;;16.90;76.30;;;;;;4960121;28;95829;-62
2022/05/04 15:24:09;;;;;;;;;;;17.00;76.20;;;;;;4960040;28;95523;-56
2022/05/04 15:26:40;;;;;;;;;;;17.00;76.10;;;;;;4960398;28;94975;-58
2022/05/04 15:29:12;;;;;;;;;;;17.00;76.10;;;;;;4960934;28;95045;-56
2022/05/04 15:31:47;;;;;;;;;;;17.00;76.10;;;;;;4958463;28;96395;-58
2022/05/04 15:34:21;;;;;;;;;;;17.00;75.90;;;;;;4959705;28;95765;-57
2022/05/04 15:36:55;;;;;;;;;;;17.00;75.80;;;;;;4960092;28;94990;-54